الصفحة الرئيسية
METAR-TAF:

METAR-TAF

مطار :

Rurrenabaque, بوليفيا

دائرة عرض: 14-28S, خط طول: 067-34W, ارتفاع: 204 متر

مراقبة الطقس الحالي

تاريخ ووقت الإصدار 13ساعات و 28 دقيقة قبل الساعة 20:00UTC
رياح هادئة
درجة الحرارة 33°درجة مئوية
الرطوبة 63%
ضغط 1009 hPa
الرؤية 10 كم أو أكثر
غيوم متفرقة على ارتفاع 2000 قدم
غيوم قليلة على ارتفاع 2500 قدم, مزنة ركامية.
غيوم متفرقة على ارتفاع 20000 قدم

METAR: SLRQ 012000Z 00000KT 9999 SCT020 FEW025CB SCT200 33/25 Q1009

زمن: 05:28 (09:28 UTC)


TAF: مفقودة

أرصاد الطقس والتوقعات من أكثر من 4000 مطار (تقارير الطقس للمطار METAR والتنبؤ بالطقس بالمطارTAF).

المحطات المتاحة هي النقط الصفراء والحمراء على الخريطة.

حرك المؤشر فوق النقطة لمعرفة اسم المحطة.

ثم انقر لمعرفة أرصاد وتوقعات الطقس.

لتغيير الخارطة: اضغط على الأزرار الخضراء مع رمز الصليب الأسود للتكبير. على الزر الأخضر مع شرطة للتصغير، أو على الأسهم الخضراء للخرائط المجاورة.


METAR-TAF: